sensor_id;sensor_type;location;lat;lon;timestamp;temperature;humidity
15991;DHT22;8100;50.994;4.538;2023-11-19T00:00:06;12.50;99.90
15991;DHT22;8100;50.994;4.538;2023-11-19T00:02:57;14.50;99.90
15991;DHT22;8100;50.994;4.538;2023-11-19T00:05:44;12.70;99.90
15991;DHT22;8100;50.994;4.538;2023-11-19T00:08:32;12.80;99.90
15991;DHT22;8100;50.994;4.538;2023-11-19T00:11:19;14.10;99.90
15991;DHT22;8100;50.994;4.538;2023-11-19T00:14:07;13.00;99.90
15991;DHT22;8100;50.994;4.538;2023-11-19T00:16:54;14.10;99.90
15991;DHT22;8100;50.994;4.538;2023-11-19T00:19:41;12.60;99.90
15991;DHT22;8100;50.994;4.538;2023-11-19T00:22:29;12.70;99.90
15991;DHT22;8100;50.994;4.538;2023-11-19T00:25:17;13.50;99.90
15991;DHT22;8100;50.994;4.538;2023-11-19T00:28:04;13.90;99.90
15991;DHT22;8100;50.994;4.538;2023-11-19T00:30:51;12.60;99.90
15991;DHT22;8100;50.994;4.538;2023-11-19T00:33:39;13.80;99.90
15991;DHT22;8100;50.994;4.538;2023-11-19T00:36:26;13.10;99.90
15991;DHT22;8100;50.994;4.538;2023-11-19T00:39:13;13.30;99.90
15991;DHT22;8100;50.994;4.538;2023-11-19T00:42:02;13.10;99.90
15991;DHT22;8100;50.994;4.538;2023-11-19T00:44:49;13.40;99.90
15991;DHT22;8100;50.994;4.538;2023-11-19T00:47:37;12.70;99.90
15991;DHT22;8100;50.994;4.538;2023-11-19T00:50:24;13.00;99.90
15991;DHT22;8100;50.994;4.538;2023-11-19T00:53:11;14.10;99.90
15991;DHT22;8100;50.994;4.538;2023-11-19T00:55:58;13.60;99.90
15991;DHT22;8100;50.994;4.538;2023-11-19T00:58:46;13.30;99.90
15991;DHT22;8100;50.994;4.538;2023-11-19T01:01:34;13.00;99.90
15991;DHT22;8100;50.994;4.538;2023-11-19T01:04:21;13.00;99.90
15991;DHT22;8100;50.994;4.538;2023-11-19T01:07:08;13.90;99.90
15991;DHT22;8100;50.994;4.538;2023-11-19T01:09:58;13.60;99.90
15991;DHT22;8100;50.994;4.538;2023-11-19T01:12:45;13.60;99.90
15991;DHT22;8100;50.994;4.538;2023-11-19T01:15:34;13.60;99.90
15991;DHT22;8100;50.994;4.538;2023-11-19T01:18:21;13.80;99.90
15991;DHT22;8100;50.994;4.538;2023-11-19T01:21:08;13.00;99.90
15991;DHT22;8100;50.994;4.538;2023-11-19T01:23:55;13.00;99.90
15991;DHT22;8100;50.994;4.538;2023-11-19T01:26:43;13.60;99.90
15991;DHT22;8100;50.994;4.538;2023-11-19T01:29:31;13.70;99.90
15991;DHT22;8100;50.994;4.538;2023-11-19T01:32:20;13.10;99.90
15991;DHT22;8100;50.994;4.538;2023-11-19T01:35:08;13.80;99.90
15991;DHT22;8100;50.994;4.538;2023-11-19T01:37:55;13.20;99.90
15991;DHT22;8100;50.994;4.538;2023-11-19T01:40:42;13.40;99.90
15991;DHT22;8100;50.994;4.538;2023-11-19T01:43:33;13.20;99.90
15991;DHT22;8100;50.994;4.538;2023-11-19T01:46:21;13.60;99.90
15991;DHT22;8100;50.994;4.538;2023-11-19T01:49:09;13.00;99.90
15991;DHT22;8100;50.994;4.538;2023-11-19T01:51:57;13.40;99.90
15991;DHT22;8100;50.994;4.538;2023-11-19T01:54:45;13.10;99.90
15991;DHT22;8100;50.994;4.538;2023-11-19T01:57:33;13.10;99.90
15991;DHT22;8100;50.994;4.538;2023-11-19T02:00:20;12.90;99.90
15991;DHT22;8100;50.994;4.538;2023-11-19T02:03:07;12.90;99.90
15991;DHT22;8100;50.994;4.538;2023-11-19T02:05:56;13.00;99.90
15991;DHT22;8100;50.994;4.538;2023-11-19T02:08:43;13.20;99.90
15991;DHT22;8100;50.994;4.538;2023-11-19T02:11:31;12.90;99.90
15991;DHT22;8100;50.994;4.538;2023-11-19T02:14:18;12.80;99.90
15991;DHT22;8100;50.994;4.538;2023-11-19T02:17:05;13.00;99.90
15991;DHT22;8100;50.994;4.538;2023-11-19T02:19:53;12.90;99.90
15991;DHT22;8100;50.994;4.538;2023-11-19T02:22:41;13.00;99.90
15991;DHT22;8100;50.994;4.538;2023-11-19T02:25:30;12.70;99.90
15991;DHT22;8100;50.994;4.538;2023-11-19T02:28:20;13.10;99.90
15991;DHT22;8100;50.994;4.538;2023-11-19T02:31:07;13.00;99.90
15991;DHT22;8100;50.994;4.538;2023-11-19T02:33:56;13.00;99.90
15991;DHT22;8100;50.994;4.538;2023-11-19T02:36:43;12.80;99.90
15991;DHT22;8100;50.994;4.538;2023-11-19T02:39:30;13.10;99.90
15991;DHT22;8100;50.994;4.538;2023-11-19T02:42:17;12.70;99.90
15991;DHT22;8100;50.994;4.538;2023-11-19T02:45:07;12.60;99.90
15991;DHT22;8100;50.994;4.538;2023-11-19T02:47:56;12.60;99.90
15991;DHT22;8100;50.994;4.538;2023-11-19T02:50:43;12.80;99.90
15991;DHT22;8100;50.994;4.538;2023-11-19T02:53:31;12.80;99.90
15991;DHT22;8100;50.994;4.538;2023-11-19T02:56:18;13.00;99.90
15991;DHT22;8100;50.994;4.538;2023-11-19T02:59:11;13.00;99.90
15991;DHT22;8100;50.994;4.538;2023-11-19T03:02:14;13.00;99.90
15991;DHT22;8100;50.994;4.538;2023-11-19T03:05:01;12.50;99.90
15991;DHT22;8100;50.994;4.538;2023-11-19T03:07:50;12.80;99.90
15991;DHT22;8100;50.994;4.538;2023-11-19T03:10:37;12.40;99.90
15991;DHT22;8100;50.994;4.538;2023-11-19T03:13:25;12.40;99.90
15991;DHT22;8100;50.994;4.538;2023-11-19T03:16:12;12.50;99.90
15991;DHT22;8100;50.994;4.538;2023-11-19T03:19:01;12.50;99.90
15991;DHT22;8100;50.994;4.538;2023-11-19T03:21:50;12.40;99.90
15991;DHT22;8100;50.994;4.538;2023-11-19T03:24:37;12.40;99.90
15991;DHT22;8100;50.994;4.538;2023-11-19T03:27:24;12.40;99.90
15991;DHT22;8100;50.994;4.538;2023-11-19T03:30:11;12.40;99.90
15991;DHT22;8100;50.994;4.538;2023-11-19T03:32:59;12.60;99.90
15991;DHT22;8100;50.994;4.538;2023-11-19T03:35:48;12.50;99.90
15991;DHT22;8100;50.994;4.538;2023-11-19T03:38:36;12.20;99.90
15991;DHT22;8100;50.994;4.538;2023-11-19T03:41:24;12.50;99.90
15991;DHT22;8100;50.994;4.538;2023-11-19T03:44:11;12.50;99.90
15991;DHT22;8100;50.994;4.538;2023-11-19T03:46:58;12.30;99.90
15991;DHT22;8100;50.994;4.538;2023-11-19T03:49:47;12.50;99.90
15991;DHT22;8100;50.994;4.538;2023-11-19T03:52:36;12.30;99.90
15991;DHT22;8100;50.994;4.538;2023-11-19T03:55:23;12.40;99.90
15991;DHT22;8100;50.994;4.538;2023-11-19T03:58:10;12.30;99.90
15991;DHT22;8100;50.994;4.538;2023-11-19T04:00:58;12.30;99.90
15991;DHT22;8100;50.994;4.538;2023-11-19T04:03:45;12.40;99.90
15991;DHT22;8100;50.994;4.538;2023-11-19T04:06:32;12.30;99.90
15991;DHT22;8100;50.994;4.538;2023-11-19T04:09:21;12.30;99.90
15991;DHT22;8100;50.994;4.538;2023-11-19T04:12:08;12.30;99.90
15991;DHT22;8100;50.994;4.538;2023-11-19T04:14:56;12.30;99.90
15991;DHT22;8100;50.994;4.538;2023-11-19T04:17:43;12.10;99.90
15991;DHT22;8100;50.994;4.538;2023-11-19T04:20:30;12.30;99.90
15991;DHT22;8100;50.994;4.538;2023-11-19T04:23:18;12.20;99.90
15991;DHT22;8100;50.994;4.538;2023-11-19T04:26:06;12.10;99.90
15991;DHT22;8100;50.994;4.538;2023-11-19T04:28:54;12.30;99.90
15991;DHT22;8100;50.994;4.538;2023-11-19T04:31:41;12.20;99.90
15991;DHT22;8100;50.994;4.538;2023-11-19T04:34:28;12.10;99.90
15991;DHT22;8100;50.994;4.538;2023-11-19T04:37:16;12.10;99.90
15991;DHT22;8100;50.994;4.538;2023-11-19T04:40:03;12.10;99.90
15991;DHT22;8100;50.994;4.538;2023-11-19T04:42:52;12.10;99.90
15991;DHT22;8100;50.994;4.538;2023-11-19T04:45:39;12.00;99.90
15991;DHT22;8100;50.994;4.538;2023-11-19T04:48:26;12.00;99.90
15991;DHT22;8100;50.994;4.538;2023-11-19T04:51:13;11.90;99.90
15991;DHT22;8100;50.994;4.538;2023-11-19T04:54:00;12.00;99.90
15991;DHT22;8100;50.994;4.538;2023-11-19T04:56:48;11.90;99.90
15991;DHT22;8100;50.994;4.538;2023-11-19T04:59:36;11.80;99.90
15991;DHT22;8100;50.994;4.538;2023-11-19T05:02:23;11.90;99.90
15991;DHT22;8100;50.994;4.538;2023-11-19T05:05:11;11.80;99.90
15991;DHT22;8100;50.994;4.538;2023-11-19T05:07:58;12.00;99.90
15991;DHT22;8100;50.994;4.538;2023-11-19T05:10:45;11.90;99.90
15991;DHT22;8100;50.994;4.538;2023-11-19T05:13:32;11.90;99.90
15991;DHT22;8100;50.994;4.538;2023-11-19T05:16:21;12.00;99.90
15991;DHT22;8100;50.994;4.538;2023-11-19T05:19:08;11.80;99.90
15991;DHT22;8100;50.994;4.538;2023-11-19T05:21:55;11.80;99.90
15991;DHT22;8100;50.994;4.538;2023-11-19T05:24:42;11.70;99.90
15991;DHT22;8100;50.994;4.538;2023-11-19T05:27:30;11.70;99.90
15991;DHT22;8100;50.994;4.538;2023-11-19T05:30:17;11.70;99.90
15991;DHT22;8100;50.994;4.538;2023-11-19T05:33:05;11.70;99.90
15991;DHT22;8100;50.994;4.538;2023-11-19T05:35:53;11.60;99.90
15991;DHT22;8100;50.994;4.538;2023-11-19T05:38:40;11.50;99.90
15991;DHT22;8100;50.994;4.538;2023-11-19T05:41:28;11.50;99.90
15991;DHT22;8100;50.994;4.538;2023-11-19T05:44:15;11.40;99.90
15991;DHT22;8100;50.994;4.538;2023-11-19T05:47:02;11.40;99.90
15991;DHT22;8100;50.994;4.538;2023-11-19T05:49:50;11.40;99.90
15991;DHT22;8100;50.994;4.538;2023-11-19T05:52:38;11.40;99.90
15991;DHT22;8100;50.994;4.538;2023-11-19T05:55:25;11.30;99.90
15991;DHT22;8100;50.994;4.538;2023-11-19T05:58:14;11.20;99.90
15991;DHT22;8100;50.994;4.538;2023-11-19T06:01:01;11.20;99.90
15991;DHT22;8100;50.994;4.538;2023-11-19T06:03:49;11.20;99.90
15991;DHT22;8100;50.994;4.538;2023-11-19T06:06:37;11.20;99.90
15991;DHT22;8100;50.994;4.538;2023-11-19T06:09:25;11.20;99.90
15991;DHT22;8100;50.994;4.538;2023-11-19T06:12:12;11.20;99.90
15991;DHT22;8100;50.994;4.538;2023-11-19T06:15:00;11.20;99.90
15991;DHT22;8100;50.994;4.538;2023-11-19T06:17:47;11.40;99.90
15991;DHT22;8100;50.994;4.538;2023-11-19T06:20:34;11.30;99.90
15991;DHT22;8100;50.994;4.538;2023-11-19T06:23:23;11.40;99.90
15991;DHT22;8100;50.994;4.538;2023-11-19T06:26:10;11.50;99.90
15991;DHT22;8100;50.994;4.538;2023-11-19T06:28:57;11.60;99.90
15991;DHT22;8100;50.994;4.538;2023-11-19T06:31:44;11.60;99.90
15991;DHT22;8100;50.994;4.538;2023-11-19T06:34:32;11.60;99.90
15991;DHT22;8100;50.994;4.538;2023-11-19T06:37:19;11.50;99.90
15991;DHT22;8100;50.994;4.538;2023-11-19T06:40:09;11.40;99.90
15991;DHT22;8100;50.994;4.538;2023-11-19T06:42:57;11.30;99.90
15991;DHT22;8100;50.994;4.538;2023-11-19T06:45:44;11.20;99.90
15991;DHT22;8100;50.994;4.538;2023-11-19T06:48:31;11.20;99.90
15991;DHT22;8100;50.994;4.538;2023-11-19T06:51:19;11.30;99.90
15991;DHT22;8100;50.994;4.538;2023-11-19T06:54:06;11.30;99.90
15991;DHT22;8100;50.994;4.538;2023-11-19T06:56:54;11.20;99.90
15991;DHT22;8100;50.994;4.538;2023-11-19T06:59:42;11.20;99.90
15991;DHT22;8100;50.994;4.538;2023-11-19T07:02:29;11.10;99.90
15991;DHT22;8100;50.994;4.538;2023-11-19T07:05:17;11.10;99.90
15991;DHT22;8100;50.994;4.538;2023-11-19T07:08:06;11.10;99.90
15991;DHT22;8100;50.994;4.538;2023-11-19T07:10:54;11.20;99.90
15991;DHT22;8100;50.994;4.538;2023-11-19T07:13:42;11.20;99.90
15991;DHT22;8100;50.994;4.538;2023-11-19T07:16:32;11.20;99.90
15991;DHT22;8100;50.994;4.538;2023-11-19T07:19:20;11.20;99.90
15991;DHT22;8100;50.994;4.538;2023-11-19T07:22:07;11.20;99.90
15991;DHT22;8100;50.994;4.538;2023-11-19T07:24:54;11.20;99.90
15991;DHT22;8100;50.994;4.538;2023-11-19T07:27:41;11.10;99.90
15991;DHT22;8100;50.994;4.538;2023-11-19T07:30:30;11.10;99.90
15991;DHT22;8100;50.994;4.538;2023-11-19T07:33:17;11.20;99.90
15991;DHT22;8100;50.994;4.538;2023-11-19T07:36:04;11.10;99.90
15991;DHT22;8100;50.994;4.538;2023-11-19T07:38:53;11.20;99.90
15991;DHT22;8100;50.994;4.538;2023-11-19T07:41:43;11.20;99.90
15991;DHT22;8100;50.994;4.538;2023-11-19T07:44:30;11.30;99.90
15991;DHT22;8100;50.994;4.538;2023-11-19T07:47:19;11.20;99.90
15991;DHT22;8100;50.994;4.538;2023-11-19T07:50:09;11.20;99.90
15991;DHT22;8100;50.994;4.538;2023-11-19T07:52:59;11.30;99.90
15991;DHT22;8100;50.994;4.538;2023-11-19T07:55:48;11.30;99.90
15991;DHT22;8100;50.994;4.538;2023-11-19T07:58:35;11.30;99.90
15991;DHT22;8100;50.994;4.538;2023-11-19T08:01:22;11.30;99.90
15991;DHT22;8100;50.994;4.538;2023-11-19T08:04:11;11.40;99.90
15991;DHT22;8100;50.994;4.538;2023-11-19T08:06:58;11.40;99.90
15991;DHT22;8100;50.994;4.538;2023-11-19T08:09:46;11.50;99.90
15991;DHT22;8100;50.994;4.538;2023-11-19T08:12:33;11.60;99.90
15991;DHT22;8100;50.994;4.538;2023-11-19T08:15:21;11.60;99.90
15991;DHT22;8100;50.994;4.538;2023-11-19T08:18:08;11.60;99.90
15991;DHT22;8100;50.994;4.538;2023-11-19T08:20:56;11.70;99.90
15991;DHT22;8100;50.994;4.538;2023-11-19T08:23:45;11.70;99.90
15991;DHT22;8100;50.994;4.538;2023-11-19T08:26:32;11.70;99.90
15991;DHT22;8100;50.994;4.538;2023-11-19T08:29:19;11.70;99.90
15991;DHT22;8100;50.994;4.538;2023-11-19T08:32:07;11.70;99.90
15991;DHT22;8100;50.994;4.538;2023-11-19T08:34:54;11.70;99.90
15991;DHT22;8100;50.994;4.538;2023-11-19T08:37:43;11.70;99.90
15991;DHT22;8100;50.994;4.538;2023-11-19T08:40:31;11.80;99.90
15991;DHT22;8100;50.994;4.538;2023-11-19T08:43:18;11.90;99.90
15991;DHT22;8100;50.994;4.538;2023-11-19T08:46:09;11.90;99.90
15991;DHT22;8100;50.994;4.538;2023-11-19T08:48:56;12.00;99.90
15991;DHT22;8100;50.994;4.538;2023-11-19T08:51:44;12.00;99.90
15991;DHT22;8100;50.994;4.538;2023-11-19T08:54:32;12.00;99.90
15991;DHT22;8100;50.994;4.538;2023-11-19T08:57:19;11.90;99.90
15991;DHT22;8100;50.994;4.538;2023-11-19T09:00:07;12.00;99.90
15991;DHT22;8100;50.994;4.538;2023-11-19T09:02:55;11.90;99.90
15991;DHT22;8100;50.994;4.538;2023-11-19T09:05:43;12.00;99.90
15991;DHT22;8100;50.994;4.538;2023-11-19T09:08:31;11.90;99.90
15991;DHT22;8100;50.994;4.538;2023-11-19T09:11:19;11.90;99.90
15991;DHT22;8100;50.994;4.538;2023-11-19T09:14:06;11.90;99.90
15991;DHT22;8100;50.994;4.538;2023-11-19T09:16:53;11.90;99.90
15991;DHT22;8100;50.994;4.538;2023-11-19T09:19:41;12.00;99.90
15991;DHT22;8100;50.994;4.538;2023-11-19T09:22:28;12.00;99.90
15991;DHT22;8100;50.994;4.538;2023-11-19T09:25:16;12.10;99.90
15991;DHT22;8100;50.994;4.538;2023-11-19T09:28:04;12.10;99.90
15991;DHT22;8100;50.994;4.538;2023-11-19T09:30:51;12.20;99.90
15991;DHT22;8100;50.994;4.538;2023-11-19T09:33:38;12.20;99.90
15991;DHT22;8100;50.994;4.538;2023-11-19T09:36:26;12.30;99.90
15991;DHT22;8100;50.994;4.538;2023-11-19T09:39:13;12.30;99.90
15991;DHT22;8100;50.994;4.538;2023-11-19T09:42:04;12.40;44.90
15991;DHT22;8100;50.994;4.538;2023-11-19T09:44:53;12.50;44.80
15991;DHT22;8100;50.994;4.538;2023-11-19T09:47:44;12.60;56.70
15991;DHT22;8100;50.994;4.538;2023-11-19T09:50:32;12.70;17.60
15991;DHT22;8100;50.994;4.538;2023-11-19T09:53:19;12.70;1.00
15991;DHT22;8100;50.994;4.538;2023-11-19T09:56:07;12.80;1.70
15991;DHT22;8100;50.994;4.538;2023-11-19T09:58:55;12.80;1.00
15991;DHT22;8100;50.994;4.538;2023-11-19T10:01:43;12.80;1.00
15991;DHT22;8100;50.994;4.538;2023-11-19T10:04:34;12.70;1.00
15991;DHT22;8100;50.994;4.538;2023-11-19T10:07:22;12.70;23.50
15991;DHT22;8100;50.994;4.538;2023-11-19T10:10:09;12.50;99.90
15991;DHT22;8100;50.994;4.538;2023-11-19T10:13:00;12.50;99.90
15991;DHT22;8100;50.994;4.538;2023-11-19T10:15:49;12.50;99.90
15991;DHT22;8100;50.994;4.538;2023-11-19T10:18:37;12.50;94.30
15991;DHT22;8100;50.994;4.538;2023-11-19T10:21:26;12.80;40.60
15991;DHT22;8100;50.994;4.538;2023-11-19T10:24:13;12.90;16.00
15991;DHT22;8100;50.994;4.538;2023-11-19T10:27:01;13.00;1.00
15991;DHT22;8100;50.994;4.538;2023-11-19T10:29:49;13.10;1.00
15991;DHT22;8100;50.994;4.538;2023-11-19T10:32:36;13.10;1.00
15991;DHT22;8100;50.994;4.538;2023-11-19T10:35:24;13.20;1.00
15991;DHT22;8100;50.994;4.538;2023-11-19T10:38:14;13.30;1.00
15991;DHT22;8100;50.994;4.538;2023-11-19T10:41:02;13.30;1.00
15991;DHT22;8100;50.994;4.538;2023-11-19T10:43:50;13.10;1.00
15991;DHT22;8100;50.994;4.538;2023-11-19T10:46:38;12.90;18.10
15991;DHT22;8100;50.994;4.538;2023-11-19T10:49:26;12.90;28.00
15991;DHT22;8100;50.994;4.538;2023-11-19T10:52:18;12.90;1.00
15991;DHT22;8100;50.994;4.538;2023-11-19T10:55:07;12.90;34.70
15991;DHT22;8100;50.994;4.538;2023-11-19T10:57:59;12.80;1.00
15991;DHT22;8100;50.994;4.538;2023-11-19T11:00:50;12.70;1.00
15991;DHT22;8100;50.994;4.538;2023-11-19T11:03:39;12.70;36.10
15991;DHT22;8100;50.994;4.538;2023-11-19T11:06:27;12.80;35.60
15991;DHT22;8100;50.994;4.538;2023-11-19T11:09:16;12.90;28.60
15991;DHT22;8100;50.994;4.538;2023-11-19T11:12:06;13.10;1.00
15991;DHT22;8100;50.994;4.538;2023-11-19T11:14:54;13.10;1.00
15991;DHT22;8100;50.994;4.538;2023-11-19T11:17:44;13.10;1.00
15991;DHT22;8100;50.994;4.538;2023-11-19T11:20:33;13.00;1.00
15991;DHT22;8100;50.994;4.538;2023-11-19T11:23:49;13.10;1.00
15991;DHT22;8100;50.994;4.538;2023-11-19T11:30:07;13.10;1.00
15991;DHT22;8100;50.994;4.538;2023-11-19T11:33:09;13.20;1.00
15991;DHT22;8100;50.994;4.538;2023-11-19T11:36:09;13.40;1.00
15991;DHT22;8100;50.994;4.538;2023-11-19T11:38:59;13.60;1.00
15991;DHT22;8100;50.994;4.538;2023-11-19T11:45:15;13.50;1.00
15991;DHT22;8100;50.994;4.538;2023-11-19T11:48:10;13.40;1.00
15991;DHT22;8100;50.994;4.538;2023-11-19T11:50:58;13.50;1.00
15991;DHT22;8100;50.994;4.538;2023-11-19T11:53:47;13.70;1.00
15991;DHT22;8100;50.994;4.538;2023-11-19T11:56:37;13.70;1.00
15991;DHT22;8100;50.994;4.538;2023-11-19T11:59:24;13.70;1.00
15991;DHT22;8100;50.994;4.538;2023-11-19T12:02:14;13.60;1.00
15991;DHT22;8100;50.994;4.538;2023-11-19T12:05:02;13.60;1.00
15991;DHT22;8100;50.994;4.538;2023-11-19T12:07:55;13.50;1.00
15991;DHT22;8100;50.994;4.538;2023-11-19T12:10:45;13.50;1.00
15991;DHT22;8100;50.994;4.538;2023-11-19T12:13:48;13.40;1.00
15991;DHT22;8100;50.994;4.538;2023-11-19T12:16:39;13.30;1.00
15991;DHT22;8100;50.994;4.538;2023-11-19T12:19:28;13.30;1.00
15991;DHT22;8100;50.994;4.538;2023-11-19T12:22:15;13.20;1.00
15991;DHT22;8100;50.994;4.538;2023-11-19T12:25:02;13.30;1.00
15991;DHT22;8100;50.994;4.538;2023-11-19T12:27:52;13.10;1.00
15991;DHT22;8100;50.994;4.538;2023-11-19T12:30:40;12.80;9.00
15991;DHT22;8100;50.994;4.538;2023-11-19T12:33:27;12.80;12.40
15991;DHT22;8100;50.994;4.538;2023-11-19T12:36:15;12.90;1.00
15991;DHT22;8100;50.994;4.538;2023-11-19T12:39:03;13.00;1.00
15991;DHT22;8100;50.994;4.538;2023-11-19T12:41:52;13.00;1.00
15991;DHT22;8100;50.994;4.538;2023-11-19T12:44:54;12.90;1.00
15991;DHT22;8100;50.994;4.538;2023-11-19T12:47:43;12.70;1.00
15991;DHT22;8100;50.994;4.538;2023-11-19T12:50:50;12.60;1.00
15991;DHT22;8100;50.994;4.538;2023-11-19T12:53:49;12.80;1.00
15991;DHT22;8100;50.994;4.538;2023-11-19T12:56:39;12.90;1.00
15991;DHT22;8100;50.994;4.538;2023-11-19T12:59:28;12.90;1.00
15991;DHT22;8100;50.994;4.538;2023-11-19T13:02:16;12.80;1.00
15991;DHT22;8100;50.994;4.538;2023-11-19T13:05:22;12.90;1.00
15991;DHT22;8100;50.994;4.538;2023-11-19T13:08:10;12.90;1.00
15991;DHT22;8100;50.994;4.538;2023-11-19T13:11:00;12.90;1.00
15991;DHT22;8100;50.994;4.538;2023-11-19T13:13:55;13.00;1.00
15991;DHT22;8100;50.994;4.538;2023-11-19T13:16:42;13.00;1.00
15991;DHT22;8100;50.994;4.538;2023-11-19T13:19:31;12.90;1.00
15991;DHT22;8100;50.994;4.538;2023-11-19T13:22:18;12.70;1.00
15991;DHT22;8100;50.994;4.538;2023-11-19T13:25:06;12.60;31.30
15991;DHT22;8100;50.994;4.538;2023-11-19T13:27:55;12.50;97.90
15991;DHT22;8100;50.994;4.538;2023-11-19T13:30:42;12.40;99.90
15991;DHT22;8100;50.994;4.538;2023-11-19T13:33:29;12.30;99.90
15991;DHT22;8100;50.994;4.538;2023-11-19T13:36:16;12.10;99.90
15991;DHT22;8100;50.994;4.538;2023-11-19T13:39:04;11.90;99.90
15991;DHT22;8100;50.994;4.538;2023-11-19T13:41:53;12.00;99.90
15991;DHT22;8100;50.994;4.538;2023-11-19T13:44:41;12.00;99.90
15991;DHT22;8100;50.994;4.538;2023-11-19T13:47:28;12.10;99.90
15991;DHT22;8100;50.994;4.538;2023-11-19T13:50:16;12.30;99.90
15991;DHT22;8100;50.994;4.538;2023-11-19T13:53:03;12.50;99.90
15991;DHT22;8100;50.994;4.538;2023-11-19T13:55:51;12.60;98.10
15991;DHT22;8100;50.994;4.538;2023-11-19T13:58:38;12.70;99.90
15991;DHT22;8100;50.994;4.538;2023-11-19T14:01:27;12.70;41.60
15991;DHT22;8100;50.994;4.538;2023-11-19T14:04:15;12.70;49.20
15991;DHT22;8100;50.994;4.538;2023-11-19T14:07:02;12.60;23.50
15991;DHT22;8100;50.994;4.538;2023-11-19T14:09:49;12.60;4.50
15991;DHT22;8100;50.994;4.538;2023-11-19T14:12:37;12.70;9.60
15991;DHT22;8100;50.994;4.538;2023-11-19T14:15:25;12.70;11.20
15991;DHT22;8100;50.994;4.538;2023-11-19T14:18:13;12.60;41.80
15991;DHT22;8100;50.994;4.538;2023-11-19T14:21:00;12.60;50.10
15991;DHT22;8100;50.994;4.538;2023-11-19T14:23:49;12.60;52.30
15991;DHT22;8100;50.994;4.538;2023-11-19T14:26:36;12.60;32.90
15991;DHT22;8100;50.994;4.538;2023-11-19T14:29:23;12.60;51.70
15991;DHT22;8100;50.994;4.538;2023-11-19T14:32:11;12.50;69.10
15991;DHT22;8100;50.994;4.538;2023-11-19T14:35:00;12.50;99.90
15991;DHT22;8100;50.994;4.538;2023-11-19T14:37:48;12.20;99.90
15991;DHT22;8100;50.994;4.538;2023-11-19T14:40:35;12.20;99.90
15991;DHT22;8100;50.994;4.538;2023-11-19T14:43:22;12.10;99.90
15991;DHT22;8100;50.994;4.538;2023-11-19T14:46:10;12.00;99.90
15991;DHT22;8100;50.994;4.538;2023-11-19T14:48:57;11.80;99.90
15991;DHT22;8100;50.994;4.538;2023-11-19T14:51:46;11.80;99.90
15991;DHT22;8100;50.994;4.538;2023-11-19T14:54:33;11.90;99.90
15991;DHT22;8100;50.994;4.538;2023-11-19T14:57:20;12.00;99.90
15991;DHT22;8100;50.994;4.538;2023-11-19T15:00:08;12.00;99.90
15991;DHT22;8100;50.994;4.538;2023-11-19T15:02:58;12.20;99.90
15991;DHT22;8100;50.994;4.538;2023-11-19T15:05:46;12.20;99.90
15991;DHT22;8100;50.994;4.538;2023-11-19T15:08:34;12.20;99.90
15991;DHT22;8100;50.994;4.538;2023-11-19T15:11:21;12.10;99.90
15991;DHT22;8100;50.994;4.538;2023-11-19T15:14:08;12.20;99.90
15991;DHT22;8100;50.994;4.538;2023-11-19T15:16:55;12.20;99.90
15991;DHT22;8100;50.994;4.538;2023-11-19T15:19:44;12.30;99.90
15991;DHT22;8100;50.994;4.538;2023-11-19T15:22:32;12.30;99.90
15991;DHT22;8100;50.994;4.538;2023-11-19T15:25:21;12.30;99.90
15991;DHT22;8100;50.994;4.538;2023-11-19T15:28:08;12.30;99.90
15991;DHT22;8100;50.994;4.538;2023-11-19T15:30:56;12.20;99.90
15991;DHT22;8100;50.994;4.538;2023-11-19T15:33:44;12.30;99.90
15991;DHT22;8100;50.994;4.538;2023-11-19T15:36:32;12.30;99.90
15991;DHT22;8100;50.994;4.538;2023-11-19T15:39:21;12.20;99.90
15991;DHT22;8100;50.994;4.538;2023-11-19T15:42:10;12.20;99.90
15991;DHT22;8100;50.994;4.538;2023-11-19T15:44:57;12.30;91.50
15991;DHT22;8100;50.994;4.538;2023-11-19T15:47:45;12.20;65.10
15991;DHT22;8100;50.994;4.538;2023-11-19T15:50:32;12.30;75.10
15991;DHT22;8100;50.994;4.538;2023-11-19T15:53:19;12.30;50.90
15991;DHT22;8100;50.994;4.538;2023-11-19T15:56:06;12.40;4.60
15991;DHT22;8100;50.994;4.538;2023-11-19T15:58:55;12.40;9.20
15991;DHT22;8100;50.994;4.538;2023-11-19T16:01:42;12.40;1.00
15991;DHT22;8100;50.994;4.538;2023-11-19T16:04:29;12.40;1.00
15991;DHT22;8100;50.994;4.538;2023-11-19T16:07:17;12.30;1.00
15991;DHT22;8100;50.994;4.538;2023-11-19T16:10:06;12.20;1.00
15991;DHT22;8100;50.994;4.538;2023-11-19T16:12:55;12.30;1.10
15991;DHT22;8100;50.994;4.538;2023-11-19T16:15:44;12.30;1.00
15991;DHT22;8100;50.994;4.538;2023-11-19T16:18:31;12.30;1.00
15991;DHT22;8100;50.994;4.538;2023-11-19T16:21:18;12.30;1.00
15991;DHT22;8100;50.994;4.538;2023-11-19T16:24:06;12.10;99.90
15991;DHT22;8100;50.994;4.538;2023-11-19T16:26:53;11.60;99.90
15991;DHT22;8100;50.994;4.538;2023-11-19T16:29:40;11.50;99.90
15991;DHT22;8100;50.994;4.538;2023-11-19T16:32:29;11.30;99.90
15991;DHT22;8100;50.994;4.538;2023-11-19T16:35:17;11.30;99.90
15991;DHT22;8100;50.994;4.538;2023-11-19T16:38:04;11.20;99.90
15991;DHT22;8100;50.994;4.538;2023-11-19T16:40:52;11.20;99.90
15991;DHT22;8100;50.994;4.538;2023-11-19T16:43:39;11.20;99.90
15991;DHT22;8100;50.994;4.538;2023-11-19T16:46:26;11.30;99.90
15991;DHT22;8100;50.994;4.538;2023-11-19T16:49:16;11.30;99.90
15991;DHT22;8100;50.994;4.538;2023-11-19T16:52:04;11.30;99.90
15991;DHT22;8100;50.994;4.538;2023-11-19T16:54:54;11.40;99.90
15991;DHT22;8100;50.994;4.538;2023-11-19T16:57:42;11.40;99.90
15991;DHT22;8100;50.994;4.538;2023-11-19T17:00:30;11.50;99.90
15991;DHT22;8100;50.994;4.538;2023-11-19T17:03:18;11.60;99.90
15991;DHT22;8100;50.994;4.538;2023-11-19T17:06:08;11.60;99.90
15991;DHT22;8100;50.994;4.538;2023-11-19T17:08:56;11.60;99.90
15991;DHT22;8100;50.994;4.538;2023-11-19T17:11:43;11.60;99.90
15991;DHT22;8100;50.994;4.538;2023-11-19T17:14:31;11.70;99.90
15991;DHT22;8100;50.994;4.538;2023-11-19T17:17:20;11.60;99.90
15991;DHT22;8100;50.994;4.538;2023-11-19T17:20:08;11.60;99.90
15991;DHT22;8100;50.994;4.538;2023-11-19T17:22:57;11.70;99.90
15991;DHT22;8100;50.994;4.538;2023-11-19T17:25:44;11.70;99.90
15991;DHT22;8100;50.994;4.538;2023-11-19T17:28:32;11.70;99.90
15991;DHT22;8100;50.994;4.538;2023-11-19T17:31:21;11.70;99.90
15991;DHT22;8100;50.994;4.538;2023-11-19T17:34:08;11.70;99.90
15991;DHT22;8100;50.994;4.538;2023-11-19T17:36:55;11.70;99.90
15991;DHT22;8100;50.994;4.538;2023-11-19T17:39:45;11.70;99.90
15991;DHT22;8100;50.994;4.538;2023-11-19T17:42:32;11.70;99.90
15991;DHT22;8100;50.994;4.538;2023-11-19T17:45:20;11.70;99.90
15991;DHT22;8100;50.994;4.538;2023-11-19T17:48:07;11.70;99.90
15991;DHT22;8100;50.994;4.538;2023-11-19T17:50:55;11.70;99.90
15991;DHT22;8100;50.994;4.538;2023-11-19T17:53:43;11.60;99.90
15991;DHT22;8100;50.994;4.538;2023-11-19T17:56:32;11.60;99.90
15991;DHT22;8100;50.994;4.538;2023-11-19T17:59:19;11.60;99.90
15991;DHT22;8100;50.994;4.538;2023-11-19T18:02:10;11.50;99.90
15991;DHT22;8100;50.994;4.538;2023-11-19T18:04:57;11.60;99.90
15991;DHT22;8100;50.994;4.538;2023-11-19T18:07:45;11.60;99.90
15991;DHT22;8100;50.994;4.538;2023-11-19T18:10:32;11.70;99.90